createdAt,value
2019-02-09T00:29:14.488Z,98.40
2019-02-09T00:59:20.676Z,97.90
2019-02-09T01:29:26.748Z,97.80
2019-02-09T01:59:33.008Z,97.70
2019-02-09T02:29:37.729Z,97.60
2019-02-09T02:59:43.711Z,97.30
2019-02-09T03:29:48.243Z,96.80
2019-02-09T03:59:52.860Z,95.70
2019-02-09T04:29:57.677Z,94.30
2019-02-09T05:00:02.557Z,93.10
2019-02-09T05:30:13.077Z,92.80
2019-02-09T06:00:36.671Z,92.50
2019-02-09T06:30:41.229Z,92.10
2019-02-09T07:00:46.582Z,92.40
2019-02-09T07:30:52.624Z,92.30
2019-02-09T08:00:57.575Z,92.30
2019-02-09T08:31:02.116Z,91.70
2019-02-09T09:01:06.924Z,91.50
2019-02-09T09:31:11.406Z,91.60
2019-02-09T10:01:16.457Z,90.90
2019-02-09T10:31:22.397Z,89.20
2019-02-09T11:01:27.251Z,88.10
2019-02-09T11:31:31.713Z,88.00
2019-02-09T12:01:36.416Z,86.60
2019-02-09T12:31:41.621Z,90.70
2019-02-09T13:01:46.425Z,93.80
2019-02-09T13:31:50.939Z,91.30
2019-02-09T14:01:55.697Z,88.70
2019-02-09T14:32:00.652Z,87.20
2019-02-09T15:02:06.708Z,90.20
2019-02-09T15:32:11.161Z,90.90
2019-02-09T16:02:15.752Z,92.20
2019-02-09T16:32:20.286Z,93.20
2019-02-09T17:02:24.736Z,93.90
2019-02-09T17:32:29.295Z,95.50
2019-02-09T18:02:33.740Z,98.00
2019-02-09T18:32:38.244Z,98.80
2019-02-09T19:02:42.827Z,98.10
2019-02-09T19:32:47.353Z,96.50
2019-02-09T20:02:51.801Z,94.80
2019-02-09T20:32:56.417Z,94.50
2019-02-09T21:03:00.928Z,94.80
2019-02-09T21:33:05.776Z,93.60
2019-02-09T22:03:11.455Z,92.80
2019-02-09T22:33:24.040Z,92.00
2019-02-09T23:03:40.274Z,91.20
2019-02-09T23:33:44.749Z,91.00
